sensor_id;sensor_type;location;lat;lon;timestamp;P1;durP1;ratioP1;P2;durP2;ratioP2
23404;SDS011;11875;49.356;2.718;2023-03-03T00:01:06;33.87;;;18.07;;
23404;SDS011;11875;49.356;2.718;2023-03-03T00:03:32;35.17;;;18.33;;
23404;SDS011;11875;49.356;2.718;2023-03-03T00:05:58;34.93;;;18.77;;
23404;SDS011;11875;49.356;2.718;2023-03-03T00:08:24;37.47;;;18.07;;
23404;SDS011;11875;49.356;2.718;2023-03-03T00:10:51;32.87;;;17.63;;
23404;SDS011;11875;49.356;2.718;2023-03-03T00:13:23;34.40;;;17.60;;
23404;SDS011;11875;49.356;2.718;2023-03-03T00:15:51;36.00;;;17.90;;
23404;SDS011;11875;49.356;2.718;2023-03-03T00:20:52;34.73;;;17.43;;
23404;SDS011;11875;49.356;2.718;2023-03-03T00:23:22;30.80;;;17.03;;
23404;SDS011;11875;49.356;2.718;2023-03-03T00:25:59;34.63;;;18.13;;
23404;SDS011;11875;49.356;2.718;2023-03-03T00:30:53;36.43;;;16.20;;
23404;SDS011;11875;49.356;2.718;2023-03-03T00:33:32;32.57;;;17.70;;
23404;SDS011;11875;49.356;2.718;2023-03-03T00:38:40;34.50;;;18.03;;
23404;SDS011;11875;49.356;2.718;2023-03-03T00:43:47;37.97;;;18.93;;
23404;SDS011;11875;49.356;2.718;2023-03-03T00:46:17;30.87;;;16.77;;
23404;SDS011;11875;49.356;2.718;2023-03-03T00:48:45;32.27;;;17.40;;
23404;SDS011;11875;49.356;2.718;2023-03-03T00:51:23;36.77;;;17.93;;
23404;SDS011;11875;49.356;2.718;2023-03-03T00:53:52;37.93;;;17.90;;
23404;SDS011;11875;49.356;2.718;2023-03-03T00:56:18;39.43;;;17.77;;
23404;SDS011;11875;49.356;2.718;2023-03-03T00:58:43;32.17;;;17.33;;
23404;SDS011;11875;49.356;2.718;2023-03-03T01:01:11;41.27;;;17.97;;
23404;SDS011;11875;49.356;2.718;2023-03-03T01:03:37;34.77;;;17.00;;
23404;SDS011;11875;49.356;2.718;2023-03-03T01:06:03;36.10;;;18.23;;
23404;SDS011;11875;49.356;2.718;2023-03-03T01:08:29;44.67;;;20.40;;
23404;SDS011;11875;49.356;2.718;2023-03-03T01:10:55;35.13;;;18.03;;
23404;SDS011;11875;49.356;2.718;2023-03-03T01:13:25;32.33;;;16.80;;
23404;SDS011;11875;49.356;2.718;2023-03-03T01:15:54;30.47;;;16.03;;
23404;SDS011;11875;49.356;2.718;2023-03-03T01:18:20;30.77;;;16.73;;
23404;SDS011;11875;49.356;2.718;2023-03-03T01:20:45;39.63;;;19.57;;
23404;SDS011;11875;49.356;2.718;2023-03-03T01:23:11;49.20;;;23.53;;
23404;SDS011;11875;49.356;2.718;2023-03-03T01:25:37;42.27;;;19.57;;
23404;SDS011;11875;49.356;2.718;2023-03-03T01:28:03;39.97;;;19.57;;
23404;SDS011;11875;49.356;2.718;2023-03-03T01:30:29;42.10;;;20.23;;
23404;SDS011;11875;49.356;2.718;2023-03-03T01:32:55;40.40;;;19.53;;
23404;SDS011;11875;49.356;2.718;2023-03-03T01:35:20;35.53;;;17.17;;
23404;SDS011;11875;49.356;2.718;2023-03-03T01:37:46;33.77;;;16.97;;
23404;SDS011;11875;49.356;2.718;2023-03-03T01:40:13;34.50;;;17.20;;
23404;SDS011;11875;49.356;2.718;2023-03-03T01:42:41;37.47;;;17.90;;
23404;SDS011;11875;49.356;2.718;2023-03-03T01:45:29;36.80;;;17.60;;
23404;SDS011;11875;49.356;2.718;2023-03-03T01:48:03;35.27;;;18.37;;
23404;SDS011;11875;49.356;2.718;2023-03-03T01:53:19;35.17;;;17.83;;
23404;SDS011;11875;49.356;2.718;2023-03-03T01:55:48;39.13;;;18.17;;
23404;SDS011;11875;49.356;2.718;2023-03-03T01:58:30;35.47;;;17.33;;
23404;SDS011;11875;49.356;2.718;2023-03-03T02:01:09;38.37;;;19.20;;
23404;SDS011;11875;49.356;2.718;2023-03-03T02:03:38;40.30;;;19.73;;
23404;SDS011;11875;49.356;2.718;2023-03-03T02:06:06;36.27;;;18.97;;
23404;SDS011;11875;49.356;2.718;2023-03-03T02:09:01;35.17;;;18.43;;
23404;SDS011;11875;49.356;2.718;2023-03-03T02:11:28;40.17;;;19.40;;
23404;SDS011;11875;49.356;2.718;2023-03-03T02:13:57;38.57;;;18.90;;
23404;SDS011;11875;49.356;2.718;2023-03-03T02:16:22;45.70;;;19.47;;
23404;SDS011;11875;49.356;2.718;2023-03-03T02:18:48;35.13;;;19.07;;
23404;SDS011;11875;49.356;2.718;2023-03-03T02:21:15;40.60;;;19.27;;
23404;SDS011;11875;49.356;2.718;2023-03-03T02:26:30;39.53;;;19.27;;
23404;SDS011;11875;49.356;2.718;2023-03-03T02:28:58;37.40;;;19.13;;
23404;SDS011;11875;49.356;2.718;2023-03-03T02:31:24;40.30;;;19.87;;
23404;SDS011;11875;49.356;2.718;2023-03-03T02:33:52;40.53;;;19.93;;
23404;SDS011;11875;49.356;2.718;2023-03-03T02:36:23;40.57;;;20.00;;
23404;SDS011;11875;49.356;2.718;2023-03-03T02:44:33;35.83;;;17.80;;
23404;SDS011;11875;49.356;2.718;2023-03-03T02:46:59;41.83;;;20.43;;
23404;SDS011;11875;49.356;2.718;2023-03-03T02:49:26;42.60;;;18.63;;
23404;SDS011;11875;49.356;2.718;2023-03-03T02:51:53;39.63;;;19.93;;
23404;SDS011;11875;49.356;2.718;2023-03-03T02:54:20;44.37;;;19.77;;
23404;SDS011;11875;49.356;2.718;2023-03-03T02:56:47;41.80;;;20.87;;
23404;SDS011;11875;49.356;2.718;2023-03-03T02:59:13;43.73;;;20.27;;
23404;SDS011;11875;49.356;2.718;2023-03-03T03:01:39;40.80;;;19.60;;
23404;SDS011;11875;49.356;2.718;2023-03-03T03:04:09;42.63;;;20.47;;
23404;SDS011;11875;49.356;2.718;2023-03-03T03:06:43;42.10;;;20.77;;
23404;SDS011;11875;49.356;2.718;2023-03-03T03:09:09;41.17;;;21.27;;
23404;SDS011;11875;49.356;2.718;2023-03-03T03:11:36;43.97;;;21.97;;
23404;SDS011;11875;49.356;2.718;2023-03-03T03:14:03;42.33;;;20.00;;
23404;SDS011;11875;49.356;2.718;2023-03-03T03:16:29;42.30;;;20.47;;
23404;SDS011;11875;49.356;2.718;2023-03-03T03:18:56;43.83;;;21.47;;
23404;SDS011;11875;49.356;2.718;2023-03-03T03:21:22;44.57;;;21.47;;
23404;SDS011;11875;49.356;2.718;2023-03-03T03:23:47;41.70;;;20.40;;
23404;SDS011;11875;49.356;2.718;2023-03-03T03:26:13;42.17;;;22.13;;
23404;SDS011;11875;49.356;2.718;2023-03-03T03:28:38;47.23;;;22.93;;
23404;SDS011;11875;49.356;2.718;2023-03-03T03:31:04;43.47;;;21.73;;
23404;SDS011;11875;49.356;2.718;2023-03-03T03:33:31;45.77;;;22.27;;
23404;SDS011;11875;49.356;2.718;2023-03-03T03:35:57;46.00;;;22.70;;
23404;SDS011;11875;49.356;2.718;2023-03-03T03:38:23;43.70;;;21.57;;
23404;SDS011;11875;49.356;2.718;2023-03-03T03:40:50;44.93;;;21.87;;
23404;SDS011;11875;49.356;2.718;2023-03-03T03:43:16;49.47;;;21.20;;
23404;SDS011;11875;49.356;2.718;2023-03-03T03:45:42;50.83;;;22.13;;
23404;SDS011;11875;49.356;2.718;2023-03-03T03:48:08;45.13;;;21.83;;
23404;SDS011;11875;49.356;2.718;2023-03-03T03:50:33;39.60;;;21.17;;
23404;SDS011;11875;49.356;2.718;2023-03-03T03:52:59;49.83;;;22.17;;
23404;SDS011;11875;49.356;2.718;2023-03-03T03:55:25;46.30;;;21.77;;
23404;SDS011;11875;49.356;2.718;2023-03-03T03:57:50;42.73;;;22.23;;
23404;SDS011;11875;49.356;2.718;2023-03-03T04:00:16;46.57;;;21.70;;
23404;SDS011;11875;49.356;2.718;2023-03-03T04:02:42;48.37;;;21.70;;
23404;SDS011;11875;49.356;2.718;2023-03-03T04:05:07;41.80;;;22.13;;
23404;SDS011;11875;49.356;2.718;2023-03-03T04:07:33;48.30;;;22.30;;
23404;SDS011;11875;49.356;2.718;2023-03-03T04:09:59;44.10;;;22.67;;
23404;SDS011;11875;49.356;2.718;2023-03-03T04:12:25;37.83;;;21.17;;
23404;SDS011;11875;49.356;2.718;2023-03-03T04:14:50;45.03;;;24.17;;
23404;SDS011;11875;49.356;2.718;2023-03-03T04:17:16;44.67;;;22.10;;
23404;SDS011;11875;49.356;2.718;2023-03-03T04:19:51;41.83;;;22.13;;
23404;SDS011;11875;49.356;2.718;2023-03-03T04:22:17;44.77;;;23.00;;
23404;SDS011;11875;49.356;2.718;2023-03-03T04:24:43;45.87;;;23.57;;
23404;SDS011;11875;49.356;2.718;2023-03-03T04:27:08;43.37;;;22.37;;
23404;SDS011;11875;49.356;2.718;2023-03-03T04:29:34;47.20;;;21.97;;
23404;SDS011;11875;49.356;2.718;2023-03-03T04:32:00;42.07;;;21.63;;
23404;SDS011;11875;49.356;2.718;2023-03-03T04:34:26;43.13;;;22.57;;
23404;SDS011;11875;49.356;2.718;2023-03-03T04:36:51;45.07;;;22.80;;
23404;SDS011;11875;49.356;2.718;2023-03-03T04:39:17;47.90;;;24.03;;
23404;SDS011;11875;49.356;2.718;2023-03-03T04:41:42;46.83;;;22.70;;
23404;SDS011;11875;49.356;2.718;2023-03-03T04:44:08;45.70;;;22.70;;
23404;SDS011;11875;49.356;2.718;2023-03-03T04:46:34;43.73;;;22.13;;
23404;SDS011;11875;49.356;2.718;2023-03-03T04:48:59;44.80;;;22.30;;
23404;SDS011;11875;49.356;2.718;2023-03-03T04:51:25;47.23;;;24.07;;
23404;SDS011;11875;49.356;2.718;2023-03-03T04:53:51;42.90;;;22.07;;
23404;SDS011;11875;49.356;2.718;2023-03-03T04:56:16;43.40;;;22.93;;
23404;SDS011;11875;49.356;2.718;2023-03-03T04:58:42;45.67;;;22.80;;
23404;SDS011;11875;49.356;2.718;2023-03-03T05:01:09;43.63;;;22.97;;
23404;SDS011;11875;49.356;2.718;2023-03-03T05:03:39;46.87;;;23.10;;
23404;SDS011;11875;49.356;2.718;2023-03-03T05:06:05;47.73;;;23.47;;
23404;SDS011;11875;49.356;2.718;2023-03-03T05:08:31;47.60;;;23.63;;
23404;SDS011;11875;49.356;2.718;2023-03-03T05:10:57;47.93;;;23.13;;
23404;SDS011;11875;49.356;2.718;2023-03-03T05:13:24;47.57;;;22.83;;
23404;SDS011;11875;49.356;2.718;2023-03-03T05:15:51;44.27;;;22.70;;
23404;SDS011;11875;49.356;2.718;2023-03-03T05:18:19;46.60;;;23.07;;
23404;SDS011;11875;49.356;2.718;2023-03-03T05:20:46;44.07;;;23.00;;
23404;SDS011;11875;49.356;2.718;2023-03-03T05:23:12;44.13;;;23.53;;
23404;SDS011;11875;49.356;2.718;2023-03-03T05:25:39;50.37;;;24.87;;
23404;SDS011;11875;49.356;2.718;2023-03-03T05:28:06;48.53;;;24.47;;
23404;SDS011;11875;49.356;2.718;2023-03-03T05:30:31;53.27;;;25.30;;
23404;SDS011;11875;49.356;2.718;2023-03-03T05:32:57;51.97;;;22.27;;
23404;SDS011;11875;49.356;2.718;2023-03-03T05:35:23;45.33;;;24.40;;
23404;SDS011;11875;49.356;2.718;2023-03-03T05:37:49;52.73;;;25.63;;
23404;SDS011;11875;49.356;2.718;2023-03-03T05:40:16;53.83;;;25.60;;
23404;SDS011;11875;49.356;2.718;2023-03-03T05:42:42;56.03;;;24.63;;
23404;SDS011;11875;49.356;2.718;2023-03-03T05:45:08;43.43;;;23.73;;
23404;SDS011;11875;49.356;2.718;2023-03-03T05:47:34;53.97;;;25.50;;
23404;SDS011;11875;49.356;2.718;2023-03-03T05:50:00;51.33;;;25.17;;
23404;SDS011;11875;49.356;2.718;2023-03-03T05:52:25;55.60;;;26.63;;
23404;SDS011;11875;49.356;2.718;2023-03-03T05:54:51;55.43;;;25.30;;
23404;SDS011;11875;49.356;2.718;2023-03-03T05:57:16;52.90;;;25.47;;
23404;SDS011;11875;49.356;2.718;2023-03-03T05:59:42;51.53;;;25.83;;
23404;SDS011;11875;49.356;2.718;2023-03-03T06:02:08;53.27;;;25.83;;
23404;SDS011;11875;49.356;2.718;2023-03-03T06:04:33;48.47;;;25.93;;
23404;SDS011;11875;49.356;2.718;2023-03-03T06:06:59;50.70;;;25.50;;
23404;SDS011;11875;49.356;2.718;2023-03-03T06:09:24;56.40;;;26.67;;
23404;SDS011;11875;49.356;2.718;2023-03-03T06:11:50;58.17;;;28.23;;
23404;SDS011;11875;49.356;2.718;2023-03-03T06:14:17;54.17;;;26.90;;
23404;SDS011;11875;49.356;2.718;2023-03-03T06:16:45;49.53;;;25.30;;
23404;SDS011;11875;49.356;2.718;2023-03-03T06:19:11;50.77;;;25.67;;
23404;SDS011;11875;49.356;2.718;2023-03-03T06:21:36;51.10;;;25.77;;
23404;SDS011;11875;49.356;2.718;2023-03-03T06:24:02;59.50;;;26.93;;
23404;SDS011;11875;49.356;2.718;2023-03-03T06:26:28;50.17;;;26.53;;
23404;SDS011;11875;49.356;2.718;2023-03-03T06:28:53;55.73;;;27.27;;
23404;SDS011;11875;49.356;2.718;2023-03-03T06:31:19;54.63;;;26.20;;
23404;SDS011;11875;49.356;2.718;2023-03-03T06:33:45;58.43;;;26.77;;
23404;SDS011;11875;49.356;2.718;2023-03-03T06:36:11;57.47;;;26.20;;
23404;SDS011;11875;49.356;2.718;2023-03-03T06:38:36;50.30;;;25.37;;
23404;SDS011;11875;49.356;2.718;2023-03-03T06:41:02;54.00;;;26.33;;
23404;SDS011;11875;49.356;2.718;2023-03-03T06:43:31;53.40;;;25.00;;
23404;SDS011;11875;49.356;2.718;2023-03-03T06:45:57;49.20;;;24.87;;
23404;SDS011;11875;49.356;2.718;2023-03-03T06:48:23;49.27;;;25.57;;
23404;SDS011;11875;49.356;2.718;2023-03-03T06:50:49;52.37;;;26.00;;
23404;SDS011;11875;49.356;2.718;2023-03-03T06:53:15;45.67;;;25.13;;
23404;SDS011;11875;49.356;2.718;2023-03-03T06:55:42;50.40;;;24.50;;
23404;SDS011;11875;49.356;2.718;2023-03-03T07:00:43;61.90;;;27.70;;
23404;SDS011;11875;49.356;2.718;2023-03-03T07:03:36;55.80;;;27.63;;
23404;SDS011;11875;49.356;2.718;2023-03-03T07:06:07;57.30;;;27.53;;
23404;SDS011;11875;49.356;2.718;2023-03-03T07:08:54;53.17;;;26.57;;
23404;SDS011;11875;49.356;2.718;2023-03-03T07:11:21;57.67;;;26.83;;
23404;SDS011;11875;49.356;2.718;2023-03-03T07:13:53;57.70;;;27.57;;
23404;SDS011;11875;49.356;2.718;2023-03-03T07:16:23;57.53;;;28.37;;
23404;SDS011;11875;49.356;2.718;2023-03-03T07:21:22;56.10;;;27.47;;
23404;SDS011;11875;49.356;2.718;2023-03-03T07:24:13;56.90;;;27.47;;
23404;SDS011;11875;49.356;2.718;2023-03-03T07:26:50;58.50;;;26.97;;
23404;SDS011;11875;49.356;2.718;2023-03-03T07:31:47;54.63;;;25.73;;
23404;SDS011;11875;49.356;2.718;2023-03-03T07:34:21;65.53;;;27.73;;
23404;SDS011;11875;49.356;2.718;2023-03-03T07:36:54;60.83;;;28.47;;
23404;SDS011;11875;49.356;2.718;2023-03-03T07:39:24;55.63;;;27.07;;
23404;SDS011;11875;49.356;2.718;2023-03-03T07:42:22;55.60;;;24.97;;
23404;SDS011;11875;49.356;2.718;2023-03-03T07:44:51;51.93;;;25.43;;
23404;SDS011;11875;49.356;2.718;2023-03-03T07:47:35;52.77;;;25.40;;
23404;SDS011;11875;49.356;2.718;2023-03-03T07:50:34;56.07;;;26.97;;
23404;SDS011;11875;49.356;2.718;2023-03-03T07:52:58;55.33;;;26.03;;
23404;SDS011;11875;49.356;2.718;2023-03-03T07:55:35;51.53;;;25.47;;
23404;SDS011;11875;49.356;2.718;2023-03-03T08:03:04;46.97;;;22.83;;
23404;SDS011;11875;49.356;2.718;2023-03-03T08:05:40;42.37;;;22.73;;
23404;SDS011;11875;49.356;2.718;2023-03-03T08:13:22;50.43;;;23.93;;
23404;SDS011;11875;49.356;2.718;2023-03-03T08:15:54;44.53;;;23.13;;
23404;SDS011;11875;49.356;2.718;2023-03-03T08:18:23;43.97;;;22.70;;
23404;SDS011;11875;49.356;2.718;2023-03-03T08:21:00;44.40;;;21.07;;
23404;SDS011;11875;49.356;2.718;2023-03-03T08:23:30;45.23;;;23.20;;
23404;SDS011;11875;49.356;2.718;2023-03-03T08:25:56;39.00;;;21.27;;
23404;SDS011;11875;49.356;2.718;2023-03-03T08:28:21;41.50;;;21.07;;
23404;SDS011;11875;49.356;2.718;2023-03-03T08:30:48;41.00;;;22.60;;
23404;SDS011;11875;49.356;2.718;2023-03-03T08:33:14;45.07;;;21.50;;
23404;SDS011;11875;49.356;2.718;2023-03-03T08:35:41;43.60;;;20.77;;
23404;SDS011;11875;49.356;2.718;2023-03-03T08:38:07;39.30;;;21.10;;
23404;SDS011;11875;49.356;2.718;2023-03-03T08:40:32;40.97;;;21.87;;
23404;SDS011;11875;49.356;2.718;2023-03-03T08:42:58;42.67;;;21.73;;
23404;SDS011;11875;49.356;2.718;2023-03-03T08:45:24;41.63;;;19.93;;
23404;SDS011;11875;49.356;2.718;2023-03-03T08:47:50;39.03;;;20.30;;
23404;SDS011;11875;49.356;2.718;2023-03-03T08:50:16;42.20;;;21.13;;
23404;SDS011;11875;49.356;2.718;2023-03-03T08:52:42;39.90;;;20.37;;
23404;SDS011;11875;49.356;2.718;2023-03-03T08:55:08;40.67;;;20.80;;
23404;SDS011;11875;49.356;2.718;2023-03-03T08:57:35;39.93;;;19.30;;
23404;SDS011;11875;49.356;2.718;2023-03-03T09:00:00;38.47;;;18.90;;
23404;SDS011;11875;49.356;2.718;2023-03-03T09:02:26;39.27;;;20.17;;
23404;SDS011;11875;49.356;2.718;2023-03-03T09:04:51;38.13;;;19.53;;
23404;SDS011;11875;49.356;2.718;2023-03-03T09:07:17;46.07;;;19.83;;
23404;SDS011;11875;49.356;2.718;2023-03-03T09:09:43;37.87;;;18.57;;
23404;SDS011;11875;49.356;2.718;2023-03-03T09:12:14;40.50;;;20.40;;
23404;SDS011;11875;49.356;2.718;2023-03-03T09:14:42;38.30;;;17.27;;
23404;SDS011;11875;49.356;2.718;2023-03-03T09:17:20;35.90;;;18.17;;
23404;SDS011;11875;49.356;2.718;2023-03-03T09:19:49;36.40;;;18.50;;
23404;SDS011;11875;49.356;2.718;2023-03-03T09:22:23;42.53;;;18.57;;
23404;SDS011;11875;49.356;2.718;2023-03-03T09:24:52;39.03;;;18.67;;
23404;SDS011;11875;49.356;2.718;2023-03-03T09:29:52;35.67;;;18.53;;
23404;SDS011;11875;49.356;2.718;2023-03-03T09:34:57;35.73;;;16.73;;
23404;SDS011;11875;49.356;2.718;2023-03-03T09:37:28;36.67;;;17.07;;
23404;SDS011;11875;49.356;2.718;2023-03-03T09:40:43;34.87;;;15.67;;
23404;SDS011;11875;49.356;2.718;2023-03-03T09:54:17;29.57;;;15.17;;
23404;SDS011;11875;49.356;2.718;2023-03-03T10:15:29;31.10;;;14.37;;
23404;SDS011;11875;49.356;2.718;2023-03-03T10:21:10;30.40;;;15.27;;
23404;SDS011;11875;49.356;2.718;2023-03-03T10:23:45;26.83;;;14.50;;
23404;SDS011;11875;49.356;2.718;2023-03-03T10:27:04;34.07;;;14.53;;
23404;SDS011;11875;49.356;2.718;2023-03-03T10:32:49;28.10;;;12.90;;
23404;SDS011;11875;49.356;2.718;2023-03-03T11:06:01;29.53;;;15.23;;
23404;SDS011;11875;49.356;2.718;2023-03-03T11:08:51;32.20;;;14.20;;
23404;SDS011;11875;49.356;2.718;2023-03-03T11:11:40;24.13;;;11.47;;
23404;SDS011;11875;49.356;2.718;2023-03-03T11:14:42;29.33;;;15.30;;
23404;SDS011;11875;49.356;2.718;2023-03-03T11:20:00;25.47;;;14.17;;
23404;SDS011;11875;49.356;2.718;2023-03-03T11:25:11;30.73;;;14.93;;
23404;SDS011;11875;49.356;2.718;2023-03-03T11:27:59;32.43;;;14.87;;
23404;SDS011;11875;49.356;2.718;2023-03-03T11:33:21;27.13;;;15.13;;
23404;SDS011;11875;49.356;2.718;2023-03-03T11:36:10;24.67;;;13.17;;
23404;SDS011;11875;49.356;2.718;2023-03-03T11:43:48;26.60;;;14.33;;
23404;SDS011;11875;49.356;2.718;2023-03-03T11:46:18;28.20;;;15.20;;
23404;SDS011;11875;49.356;2.718;2023-03-03T11:48:55;26.03;;;14.23;;
23404;SDS011;11875;49.356;2.718;2023-03-03T11:51:31;24.27;;;13.50;;
23404;SDS011;11875;49.356;2.718;2023-03-03T11:57:09;25.63;;;14.03;;
23404;SDS011;11875;49.356;2.718;2023-03-03T12:02:22;28.60;;;15.70;;
23404;SDS011;11875;49.356;2.718;2023-03-03T12:04:53;28.17;;;15.43;;
23404;SDS011;11875;49.356;2.718;2023-03-03T12:13:04;27.13;;;15.03;;
23404;SDS011;11875;49.356;2.718;2023-03-03T12:15:44;28.83;;;14.00;;
23404;SDS011;11875;49.356;2.718;2023-03-03T12:18:33;31.83;;;16.27;;
23404;SDS011;11875;49.356;2.718;2023-03-03T12:27:09;28.33;;;15.93;;
23404;SDS011;11875;49.356;2.718;2023-03-03T12:29:42;28.80;;;15.47;;
23404;SDS011;11875;49.356;2.718;2023-03-03T12:32:50;27.53;;;15.00;;
23404;SDS011;11875;49.356;2.718;2023-03-03T12:35:38;27.33;;;14.87;;
23404;SDS011;11875;49.356;2.718;2023-03-03T12:49:11;28.23;;;16.07;;
23404;SDS011;11875;49.356;2.718;2023-03-03T13:05:15;30.90;;;15.07;;
23404;SDS011;11875;49.356;2.718;2023-03-03T13:10:50;32.33;;;15.93;;
23404;SDS011;11875;49.356;2.718;2023-03-03T13:16:26;28.43;;;14.87;;
23404;SDS011;11875;49.356;2.718;2023-03-03T13:26:53;26.97;;;14.40;;
23404;SDS011;11875;49.356;2.718;2023-03-03T13:37:26;25.57;;;15.37;;
23404;SDS011;11875;49.356;2.718;2023-03-03T13:40:00;26.83;;;13.90;;
23404;SDS011;11875;49.356;2.718;2023-03-03T13:53:53;27.20;;;15.13;;
23404;SDS011;11875;49.356;2.718;2023-03-03T14:08:17;26.07;;;14.83;;
23404;SDS011;11875;49.356;2.718;2023-03-03T14:13:20;26.30;;;14.27;;
23404;SDS011;11875;49.356;2.718;2023-03-03T14:15:55;25.83;;;14.57;;
23404;SDS011;11875;49.356;2.718;2023-03-03T14:24:05;25.67;;;12.97;;
23404;SDS011;11875;49.356;2.718;2023-03-03T14:26:53;26.33;;;14.60;;
23404;SDS011;11875;49.356;2.718;2023-03-03T14:31:52;26.93;;;14.00;;
23404;SDS011;11875;49.356;2.718;2023-03-03T14:36:47;23.37;;;13.13;;
23404;SDS011;11875;49.356;2.718;2023-03-03T14:42:05;26.90;;;13.87;;
23404;SDS011;11875;49.356;2.718;2023-03-03T14:49:38;23.20;;;13.73;;
23404;SDS011;11875;49.356;2.718;2023-03-03T14:54:40;27.20;;;14.90;;
23404;SDS011;11875;49.356;2.718;2023-03-03T14:57:17;26.70;;;14.13;;
23404;SDS011;11875;49.356;2.718;2023-03-03T15:00:08;27.30;;;15.07;;
23404;SDS011;11875;49.356;2.718;2023-03-03T15:05:20;23.23;;;12.80;;
23404;SDS011;11875;49.356;2.718;2023-03-03T15:07:48;25.20;;;12.10;;
23404;SDS011;11875;49.356;2.718;2023-03-03T15:16:18;23.80;;;13.20;;
23404;SDS011;11875;49.356;2.718;2023-03-03T15:21:25;26.70;;;13.70;;
23404;SDS011;11875;49.356;2.718;2023-03-03T15:27:00;30.10;;;15.93;;
23404;SDS011;11875;49.356;2.718;2023-03-03T15:29:46;25.63;;;14.20;;
23404;SDS011;11875;49.356;2.718;2023-03-03T15:35:43;26.60;;;14.53;;
23404;SDS011;11875;49.356;2.718;2023-03-03T15:40:51;25.47;;;14.33;;
23404;SDS011;11875;49.356;2.718;2023-03-03T15:43:48;25.70;;;13.67;;
23404;SDS011;11875;49.356;2.718;2023-03-03T15:46:29;25.73;;;14.13;;
23404;SDS011;11875;49.356;2.718;2023-03-03T15:49:03;24.90;;;14.00;;
23404;SDS011;11875;49.356;2.718;2023-03-03T15:54:58;22.70;;;13.03;;
23404;SDS011;11875;49.356;2.718;2023-03-03T15:57:57;22.80;;;12.70;;
23404;SDS011;11875;49.356;2.718;2023-03-03T16:00:34;23.70;;;12.57;;
23404;SDS011;11875;49.356;2.718;2023-03-03T16:03:13;21.93;;;12.63;;
23404;SDS011;11875;49.356;2.718;2023-03-03T16:05:52;23.87;;;13.60;;
23404;SDS011;11875;49.356;2.718;2023-03-03T16:08:28;25.50;;;14.57;;
23404;SDS011;11875;49.356;2.718;2023-03-03T16:11:11;23.83;;;13.67;;
23404;SDS011;11875;49.356;2.718;2023-03-03T16:19:17;24.00;;;13.97;;
23404;SDS011;11875;49.356;2.718;2023-03-03T16:22:10;24.30;;;12.83;;
23404;SDS011;11875;49.356;2.718;2023-03-03T16:27:51;24.50;;;13.20;;
23404;SDS011;11875;49.356;2.718;2023-03-03T16:30:55;26.47;;;14.43;;
23404;SDS011;11875;49.356;2.718;2023-03-03T16:38:52;25.87;;;14.27;;
23404;SDS011;11875;49.356;2.718;2023-03-03T16:44:17;24.70;;;13.90;;
23404;SDS011;11875;49.356;2.718;2023-03-03T16:46:54;25.17;;;12.73;;
23404;SDS011;11875;49.356;2.718;2023-03-03T16:50:29;23.60;;;13.40;;
23404;SDS011;11875;49.356;2.718;2023-03-03T16:55:50;24.57;;;13.27;;
23404;SDS011;11875;49.356;2.718;2023-03-03T16:58:40;24.13;;;13.67;;
23404;SDS011;11875;49.356;2.718;2023-03-03T17:06:28;24.10;;;13.77;;
23404;SDS011;11875;49.356;2.718;2023-03-03T17:08:57;27.37;;;13.73;;
23404;SDS011;11875;49.356;2.718;2023-03-03T17:11:49;24.37;;;13.53;;
23404;SDS011;11875;49.356;2.718;2023-03-03T17:39:44;21.73;;;12.27;;
23404;SDS011;11875;49.356;2.718;2023-03-03T17:45:09;23.17;;;12.23;;
23404;SDS011;11875;49.356;2.718;2023-03-03T17:47:44;22.50;;;12.27;;
23404;SDS011;11875;49.356;2.718;2023-03-03T17:50:22;24.60;;;12.20;;
23404;SDS011;11875;49.356;2.718;2023-03-03T17:53:50;19.80;;;11.77;;
23404;SDS011;11875;49.356;2.718;2023-03-03T17:56:07;21.53;;;11.67;;
23404;SDS011;11875;49.356;2.718;2023-03-03T18:01:19;23.30;;;12.53;;
23404;SDS011;11875;49.356;2.718;2023-03-03T18:04:07;22.83;;;11.57;;
23404;SDS011;11875;49.356;2.718;2023-03-03T18:07:01;21.63;;;11.20;;
23404;SDS011;11875;49.356;2.718;2023-03-03T18:10:34;22.73;;;11.40;;
23404;SDS011;11875;49.356;2.718;2023-03-03T18:12:56;21.67;;;11.50;;
23404;SDS011;11875;49.356;2.718;2023-03-03T18:18:40;22.57;;;11.93;;
23404;SDS011;11875;49.356;2.718;2023-03-03T18:21:42;20.33;;;10.77;;
23404;SDS011;11875;49.356;2.718;2023-03-03T18:24:33;24.13;;;12.40;;
23404;SDS011;11875;49.356;2.718;2023-03-03T18:33:06;24.77;;;12.50;;
23404;SDS011;11875;49.356;2.718;2023-03-03T18:35:38;23.67;;;12.50;;
23404;SDS011;11875;49.356;2.718;2023-03-03T18:40:57;23.80;;;12.87;;
23404;SDS011;11875;49.356;2.718;2023-03-03T18:43:46;22.47;;;12.30;;
23404;SDS011;11875;49.356;2.718;2023-03-03T18:49:46;25.07;;;13.43;;
23404;SDS011;11875;49.356;2.718;2023-03-03T18:54:04;25.17;;;13.20;;
23404;SDS011;11875;49.356;2.718;2023-03-03T19:04:43;25.83;;;12.13;;
23404;SDS011;11875;49.356;2.718;2023-03-03T19:07:19;27.97;;;12.30;;
23404;SDS011;11875;49.356;2.718;2023-03-03T19:18:14;24.27;;;12.80;;
23404;SDS011;11875;49.356;2.718;2023-03-03T19:20:43;23.93;;;12.80;;
23404;SDS011;11875;49.356;2.718;2023-03-03T19:26:39;24.23;;;13.03;;
23404;SDS011;11875;49.356;2.718;2023-03-03T19:42:42;25.20;;;13.20;;
23404;SDS011;11875;49.356;2.718;2023-03-03T19:56:22;31.00;;;14.80;;
23404;SDS011;11875;49.356;2.718;2023-03-03T19:58:54;27.07;;;14.27;;
23404;SDS011;11875;49.356;2.718;2023-03-03T20:12:20;25.40;;;12.17;;
23404;SDS011;11875;49.356;2.718;2023-03-03T20:15:11;40.20;;;17.77;;
23404;SDS011;11875;49.356;2.718;2023-03-03T20:20:28;27.23;;;14.03;;
23404;SDS011;11875;49.356;2.718;2023-03-03T20:25:48;86.83;;;35.57;;
23404;SDS011;11875;49.356;2.718;2023-03-03T20:34:00;32.73;;;18.13;;
23404;SDS011;11875;49.356;2.718;2023-03-03T20:50:30;157.90;;;55.97;;
23404;SDS011;11875;49.356;2.718;2023-03-03T20:53:10;55.73;;;25.57;;
23404;SDS011;11875;49.356;2.718;2023-03-03T20:55:50;83.63;;;36.60;;
23404;SDS011;11875;49.356;2.718;2023-03-03T21:00:56;37.07;;;16.93;;
23404;SDS011;11875;49.356;2.718;2023-03-03T21:03:34;36.90;;;17.63;;
23404;SDS011;11875;49.356;2.718;2023-03-03T21:06:23;31.60;;;17.03;;
23404;SDS011;11875;49.356;2.718;2023-03-03T21:09:02;75.80;;;31.30;;
23404;SDS011;11875;49.356;2.718;2023-03-03T21:13:56;60.93;;;29.17;;
23404;SDS011;11875;49.356;2.718;2023-03-03T21:18:58;52.33;;;26.73;;
23404;SDS011;11875;49.356;2.718;2023-03-03T21:21:29;47.80;;;21.87;;
23404;SDS011;11875;49.356;2.718;2023-03-03T21:23:57;34.20;;;16.73;;
23404;SDS011;11875;49.356;2.718;2023-03-03T21:29:07;37.30;;;17.33;;
23404;SDS011;11875;49.356;2.718;2023-03-03T21:31:43;33.83;;;15.37;;
23404;SDS011;11875;49.356;2.718;2023-03-03T21:34:44;34.87;;;15.03;;
23404;SDS011;11875;49.356;2.718;2023-03-03T21:37:07;33.23;;;16.07;;
23404;SDS011;11875;49.356;2.718;2023-03-03T21:39:35;33.60;;;15.60;;
23404;SDS011;11875;49.356;2.718;2023-03-03T21:42:06;33.17;;;14.50;;
23404;SDS011;11875;49.356;2.718;2023-03-03T21:44:33;29.57;;;16.00;;
23404;SDS011;11875;49.356;2.718;2023-03-03T21:47:03;27.73;;;14.30;;
23404;SDS011;11875;49.356;2.718;2023-03-03T21:49:30;28.83;;;14.10;;
23404;SDS011;11875;49.356;2.718;2023-03-03T21:51:56;28.83;;;14.10;;